Arlington, California
Current Conditions -  °F | °C
As of 5:53 AM on Friday 24 Oct 2014 (Local Time) from KRAL Reporting Station
Clear Clear  
Wind Chill: 59°   Ceiling: Unl
Heat Index: 59°   Visibility: 10mi
Dew Point: 42°   Wind: 5mph
Humidity: 53%   Direction: 70°ENE
Pressure: 29.99"   Gusts: NA
Location:  33.8878°N, 117.453°W
Report Text: KRAL 241253Z AUTO 07004KT 10SM CLR 15/06 A2999 RMK AO2 SLP140 T01500056
Loading
Personal Weather Stations






























Interactive Weather Map
Tropical Storm Tracking
New forecast layout! Learn more

10-Day Weather Forecast

Advertisements
Track Severe Weather on mobile